sensor_id;sensor_type;location;lat;lon;timestamp;temperature;humidity
28725;DHT22;43472;48.980;9.646;2023-07-22T00:04:41;12.70;99.90
28725;DHT22;43472;48.980;9.646;2023-07-22T00:09:44;12.50;99.90
28725;DHT22;43472;48.980;9.646;2023-07-22T00:14:46;12.60;99.90
28725;DHT22;43472;48.980;9.646;2023-07-22T00:19:48;13.50;99.90
28725;DHT22;43472;48.980;9.646;2023-07-22T00:24:50;14.50;99.90
28725;DHT22;43472;48.980;9.646;2023-07-22T00:29:52;12.60;99.90
28725;DHT22;43472;48.980;9.646;2023-07-22T00:34:54;12.70;99.90
28725;DHT22;43472;48.980;9.646;2023-07-22T00:39:56;12.60;99.90
28725;DHT22;43472;48.980;9.646;2023-07-22T00:44:58;14.90;99.90
28725;DHT22;43472;48.980;9.646;2023-07-22T00:50:01;12.30;99.90
28725;DHT22;43472;48.980;9.646;2023-07-22T00:55:05;12.80;99.90
28725;DHT22;43472;48.980;9.646;2023-07-22T01:00:10;12.40;99.90
28725;DHT22;43472;48.980;9.646;2023-07-22T01:05:14;12.20;99.90
28725;DHT22;43472;48.980;9.646;2023-07-22T01:10:16;12.30;99.90
28725;DHT22;43472;48.980;9.646;2023-07-22T01:15:18;12.20;99.90
28725;DHT22;43472;48.980;9.646;2023-07-22T01:20:22;12.30;99.90
28725;DHT22;43472;48.980;9.646;2023-07-22T01:25:25;12.00;99.90
28725;DHT22;43472;48.980;9.646;2023-07-22T01:30:30;11.90;99.90
28725;DHT22;43472;48.980;9.646;2023-07-22T01:35:32;12.10;99.90
28725;DHT22;43472;48.980;9.646;2023-07-22T01:40:35;11.80;99.90
28725;DHT22;43472;48.980;9.646;2023-07-22T01:45:37;11.70;99.90
28725;DHT22;43472;48.980;9.646;2023-07-22T01:50:40;11.90;99.90
28725;DHT22;43472;48.980;9.646;2023-07-22T01:55:42;12.00;99.90
28725;DHT22;43472;48.980;9.646;2023-07-22T02:00:50;11.90;99.90
28725;DHT22;43472;48.980;9.646;2023-07-22T02:05:52;11.80;99.90
28725;DHT22;43472;48.980;9.646;2023-07-22T02:10:54;12.20;99.90
28725;DHT22;43472;48.980;9.646;2023-07-22T02:15:58;11.60;99.90
28725;DHT22;43472;48.980;9.646;2023-07-22T02:21:01;11.50;99.90
28725;DHT22;43472;48.980;9.646;2023-07-22T02:26:03;11.60;99.90
28725;DHT22;43472;48.980;9.646;2023-07-22T02:31:06;11.70;99.90
28725;DHT22;43472;48.980;9.646;2023-07-22T02:36:09;11.70;99.90
28725;DHT22;43472;48.980;9.646;2023-07-22T02:41:11;11.50;99.90
28725;DHT22;43472;48.980;9.646;2023-07-22T02:46:13;11.50;99.90
28725;DHT22;43472;48.980;9.646;2023-07-22T02:51:15;11.30;99.90
28725;DHT22;43472;48.980;9.646;2023-07-22T02:56:17;11.30;99.90
28725;DHT22;43472;48.980;9.646;2023-07-22T03:01:19;11.40;99.90
28725;DHT22;43472;48.980;9.646;2023-07-22T03:06:21;11.40;99.90
28725;DHT22;43472;48.980;9.646;2023-07-22T03:11:24;11.50;99.90
28725;DHT22;43472;48.980;9.646;2023-07-22T03:16:27;11.20;99.90
28725;DHT22;43472;48.980;9.646;2023-07-22T03:21:31;11.30;99.90
28725;DHT22;43472;48.980;9.646;2023-07-22T03:26:33;11.30;99.90
28725;DHT22;43472;48.980;9.646;2023-07-22T03:31:35;11.10;99.90
28725;DHT22;43472;48.980;9.646;2023-07-22T03:36:37;11.20;99.90
28725;DHT22;43472;48.980;9.646;2023-07-22T03:46:42;11.10;99.90
28725;DHT22;43472;48.980;9.646;2023-07-22T03:51:44;12.70;99.90
28725;DHT22;43472;48.980;9.646;2023-07-22T04:06:51;11.30;99.90
28725;DHT22;43472;48.980;9.646;2023-07-22T04:16:56;11.10;99.90
28725;DHT22;43472;48.980;9.646;2023-07-22T04:21:58;11.20;99.90
28725;DHT22;43472;48.980;9.646;2023-07-22T04:32:04;11.30;99.90
28725;DHT22;43472;48.980;9.646;2023-07-22T04:37:07;11.40;99.90
28725;DHT22;43472;48.980;9.646;2023-07-22T04:42:09;11.40;99.90
28725;DHT22;43472;48.980;9.646;2023-07-22T04:47:11;11.30;99.90
28725;DHT22;43472;48.980;9.646;2023-07-22T04:52:13;11.30;99.90
28725;DHT22;43472;48.980;9.646;2023-07-22T04:57:20;11.90;99.90
28725;DHT22;43472;48.980;9.646;2023-07-22T05:02:22;11.30;99.90
28725;DHT22;43472;48.980;9.646;2023-07-22T05:07:25;11.50;99.90
28725;DHT22;43472;48.980;9.646;2023-07-22T05:42:53;12.10;99.90
28725;DHT22;43472;48.980;9.646;2023-07-22T05:47:55;12.40;99.90
28725;DHT22;43472;48.980;9.646;2023-07-22T05:58:02;12.80;99.90
28725;DHT22;43472;48.980;9.646;2023-07-22T06:08:10;13.00;99.90
28725;DHT22;43472;48.980;9.646;2023-07-22T06:13:12;13.30;99.90
28725;DHT22;43472;48.980;9.646;2023-07-22T06:18:14;13.70;99.90
28725;DHT22;43472;48.980;9.646;2023-07-22T06:23:16;14.40;99.90
28725;DHT22;43472;48.980;9.646;2023-07-22T06:28:18;14.30;99.90
28725;DHT22;43472;48.980;9.646;2023-07-22T06:33:20;14.60;99.90
28725;DHT22;43472;48.980;9.646;2023-07-22T06:38:26;15.30;99.90
28725;DHT22;43472;48.980;9.646;2023-07-22T06:43:28;15.40;99.90
28725;DHT22;43472;48.980;9.646;2023-07-22T06:48:31;15.80;99.90
28725;DHT22;43472;48.980;9.646;2023-07-22T06:53:33;16.00;99.90
28725;DHT22;43472;48.980;9.646;2023-07-22T07:03:38;16.60;99.90
28725;DHT22;43472;48.980;9.646;2023-07-22T07:08:40;16.80;99.90
28725;DHT22;43472;48.980;9.646;2023-07-22T07:18:44;17.00;99.90
28725;DHT22;43472;48.980;9.646;2023-07-22T07:23:47;17.40;99.90
28725;DHT22;43472;48.980;9.646;2023-07-22T07:28:52;17.80;99.90
28725;DHT22;43472;48.980;9.646;2023-07-22T07:33:54;18.00;99.90
28725;DHT22;43472;48.980;9.646;2023-07-22T07:38:56;18.10;99.90
28725;DHT22;43472;48.980;9.646;2023-07-22T07:49:01;18.50;99.90
28725;DHT22;43472;48.980;9.646;2023-07-22T07:54:03;18.80;99.90
28725;DHT22;43472;48.980;9.646;2023-07-22T07:59:07;19.10;99.90
28725;DHT22;43472;48.980;9.646;2023-07-22T08:04:10;19.20;99.90
28725;DHT22;43472;48.980;9.646;2023-07-22T08:09:15;19.30;99.90
28725;DHT22;43472;48.980;9.646;2023-07-22T08:14:20;19.60;99.90
28725;DHT22;43472;48.980;9.646;2023-07-22T08:19:24;19.60;99.90
28725;DHT22;43472;48.980;9.646;2023-07-22T08:24:26;20.00;99.90
28725;DHT22;43472;48.980;9.646;2023-07-22T08:29:28;20.20;99.90
28725;DHT22;43472;48.980;9.646;2023-07-22T08:34:30;20.30;99.90
28725;DHT22;43472;48.980;9.646;2023-07-22T08:39:32;20.50;99.90
28725;DHT22;43472;48.980;9.646;2023-07-22T08:44:38;20.60;99.90
28725;DHT22;43472;48.980;9.646;2023-07-22T08:49:51;20.80;99.90
28725;DHT22;43472;48.980;9.646;2023-07-22T08:54:55;21.20;99.90
28725;DHT22;43472;48.980;9.646;2023-07-22T08:59:57;21.10;99.90
28725;DHT22;43472;48.980;9.646;2023-07-22T09:04:59;21.40;99.90
28725;DHT22;43472;48.980;9.646;2023-07-22T09:10:01;21.50;99.90
28725;DHT22;43472;48.980;9.646;2023-07-22T09:15:05;21.50;99.90
28725;DHT22;43472;48.980;9.646;2023-07-22T09:20:12;21.90;99.90
28725;DHT22;43472;48.980;9.646;2023-07-22T09:25:23;22.20;99.90
28725;DHT22;43472;48.980;9.646;2023-07-22T09:30:33;22.30;99.90
28725;DHT22;43472;48.980;9.646;2023-07-22T09:35:43;24.40;99.90
28725;DHT22;43472;48.980;9.646;2023-07-22T09:41:21;22.30;99.90
28725;DHT22;43472;48.980;9.646;2023-07-22T09:46:31;22.20;99.30
28725;DHT22;43472;48.980;9.646;2023-07-22T09:51:40;22.20;99.90
28725;DHT22;43472;48.980;9.646;2023-07-22T09:57:04;21.70;99.30
28725;DHT22;43472;48.980;9.646;2023-07-22T10:02:08;21.50;99.90
28725;DHT22;43472;48.980;9.646;2023-07-22T10:07:14;21.50;99.90
28725;DHT22;43472;48.980;9.646;2023-07-22T10:12:16;21.30;99.90
28725;DHT22;43472;48.980;9.646;2023-07-22T10:17:19;21.20;99.90
28725;DHT22;43472;48.980;9.646;2023-07-22T10:22:23;21.30;99.90
28725;DHT22;43472;48.980;9.646;2023-07-22T10:27:26;21.50;99.90
28725;DHT22;43472;48.980;9.646;2023-07-22T10:32:34;22.60;99.90
28725;DHT22;43472;48.980;9.646;2023-07-22T10:37:45;23.30;99.20
28725;DHT22;43472;48.980;9.646;2023-07-22T10:43:06;22.50;99.90
28725;DHT22;43472;48.980;9.646;2023-07-22T10:48:12;22.50;99.80
28725;DHT22;43472;48.980;9.646;2023-07-22T10:53:29;23.50;99.80
28725;DHT22;43472;48.980;9.646;2023-07-22T11:04:05;25.50;98.10
28725;DHT22;43472;48.980;9.646;2023-07-22T11:14:51;22.90;98.40
28725;DHT22;43472;48.980;9.646;2023-07-22T11:19:53;22.70;98.20
28725;DHT22;43472;48.980;9.646;2023-07-22T11:24:55;23.30;97.70
28725;DHT22;43472;48.980;9.646;2023-07-22T11:29:58;23.40;98.00
28725;DHT22;43472;48.980;9.646;2023-07-22T11:35:00;23.40;98.10
28725;DHT22;43472;48.980;9.646;2023-07-22T11:40:03;23.80;99.00
28725;DHT22;43472;48.980;9.646;2023-07-22T11:45:06;24.20;96.40
28725;DHT22;43472;48.980;9.646;2023-07-22T11:50:08;24.40;95.70
28725;DHT22;43472;48.980;9.646;2023-07-22T11:55:11;24.70;95.90
28725;DHT22;43472;48.980;9.646;2023-07-22T12:00:33;25.80;93.40
28725;DHT22;43472;48.980;9.646;2023-07-22T12:10:39;24.40;92.70
28725;DHT22;43472;48.980;9.646;2023-07-22T12:15:43;24.20;93.50
28725;DHT22;43472;48.980;9.646;2023-07-22T12:25:50;23.90;93.30
28725;DHT22;43472;48.980;9.646;2023-07-22T12:30:56;24.60;93.00
28725;DHT22;43472;48.980;9.646;2023-07-22T12:36:08;24.40;93.10
28725;DHT22;43472;48.980;9.646;2023-07-22T12:56:27;24.60;92.70
28725;DHT22;43472;48.980;9.646;2023-07-22T13:01:29;24.70;93.10
28725;DHT22;43472;48.980;9.646;2023-07-22T13:06:32;24.70;92.30
28725;DHT22;43472;48.980;9.646;2023-07-22T13:11:34;25.50;91.40
28725;DHT22;43472;48.980;9.646;2023-07-22T13:16:36;25.70;91.50
28725;DHT22;43472;48.980;9.646;2023-07-22T13:21:38;25.30;90.60
28725;DHT22;43472;48.980;9.646;2023-07-22T13:26:40;25.30;91.30
28725;DHT22;43472;48.980;9.646;2023-07-22T13:31:42;25.60;90.10
28725;DHT22;43472;48.980;9.646;2023-07-22T13:36:44;24.90;92.60
28725;DHT22;43472;48.980;9.646;2023-07-22T13:41:46;24.80;92.30
28725;DHT22;43472;48.980;9.646;2023-07-22T13:46:48;24.90;88.20
28725;DHT22;43472;48.980;9.646;2023-07-22T13:51:50;24.80;89.90
28725;DHT22;43472;48.980;9.646;2023-07-22T13:56:52;24.50;91.50
28725;DHT22;43472;48.980;9.646;2023-07-22T14:01:56;25.10;90.80
28725;DHT22;43472;48.980;9.646;2023-07-22T14:06:59;26.20;89.40
28725;DHT22;43472;48.980;9.646;2023-07-22T14:17:04;25.30;88.70
28725;DHT22;43472;48.980;9.646;2023-07-22T14:22:06;25.50;89.00
28725;DHT22;43472;48.980;9.646;2023-07-22T14:27:08;26.10;88.90
28725;DHT22;43472;48.980;9.646;2023-07-22T14:37:13;26.30;86.60
28725;DHT22;43472;48.980;9.646;2023-07-22T14:42:17;25.50;88.80
28725;DHT22;43472;48.980;9.646;2023-07-22T14:47:19;24.70;90.60
28725;DHT22;43472;48.980;9.646;2023-07-22T14:52:22;24.20;91.20
28725;DHT22;43472;48.980;9.646;2023-07-22T14:57:24;25.70;87.70
28725;DHT22;43472;48.980;9.646;2023-07-22T15:02:31;25.30;87.10
28725;DHT22;43472;48.980;9.646;2023-07-22T15:07:33;25.30;89.30
28725;DHT22;43472;48.980;9.646;2023-07-22T15:12:35;24.40;91.80
28725;DHT22;43472;48.980;9.646;2023-07-22T15:17:37;25.10;91.10
28725;DHT22;43472;48.980;9.646;2023-07-22T15:27:43;25.00;90.40
28725;DHT22;43472;48.980;9.646;2023-07-22T15:32:47;24.40;91.50
28725;DHT22;43472;48.980;9.646;2023-07-22T15:37:49;24.40;90.80
28725;DHT22;43472;48.980;9.646;2023-07-22T15:42:51;23.90;91.70
28725;DHT22;43472;48.980;9.646;2023-07-22T15:47:55;24.30;90.50
28725;DHT22;43472;48.980;9.646;2023-07-22T15:52:57;24.20;90.90
28725;DHT22;43472;48.980;9.646;2023-07-22T15:57:59;24.50;90.50
28725;DHT22;43472;48.980;9.646;2023-07-22T16:03:01;24.50;90.60
28725;DHT22;43472;48.980;9.646;2023-07-22T16:08:05;24.50;90.70
28725;DHT22;43472;48.980;9.646;2023-07-22T16:13:07;24.10;91.20
28725;DHT22;43472;48.980;9.646;2023-07-22T16:18:11;24.70;90.00
28725;DHT22;43472;48.980;9.646;2023-07-22T16:23:13;24.40;89.50
28725;DHT22;43472;48.980;9.646;2023-07-22T16:28:16;24.00;90.10
28725;DHT22;43472;48.980;9.646;2023-07-22T16:33:18;24.00;90.50
28725;DHT22;43472;48.980;9.646;2023-07-22T16:38:20;24.00;91.10
28725;DHT22;43472;48.980;9.646;2023-07-22T16:43:22;24.10;90.60
28725;DHT22;43472;48.980;9.646;2023-07-22T16:48:26;24.30;89.80
28725;DHT22;43472;48.980;9.646;2023-07-22T16:53:28;24.30;90.00
28725;DHT22;43472;48.980;9.646;2023-07-22T16:58:30;23.60;90.90
28725;DHT22;43472;48.980;9.646;2023-07-22T17:03:33;23.10;91.40
28725;DHT22;43472;48.980;9.646;2023-07-22T17:08:37;23.10;91.30
28725;DHT22;43472;48.980;9.646;2023-07-22T17:13:40;23.00;91.70
28725;DHT22;43472;48.980;9.646;2023-07-22T17:18:42;22.80;91.90
28725;DHT22;43472;48.980;9.646;2023-07-22T17:23:44;22.80;92.20
28725;DHT22;43472;48.980;9.646;2023-07-22T17:28:46;22.60;92.90
28725;DHT22;43472;48.980;9.646;2023-07-22T17:33:48;22.80;92.60
28725;DHT22;43472;48.980;9.646;2023-07-22T17:38:50;22.80;92.70
28725;DHT22;43472;48.980;9.646;2023-07-22T17:43:52;23.00;92.20
28725;DHT22;43472;48.980;9.646;2023-07-22T17:48:54;22.30;92.80
28725;DHT22;43472;48.980;9.646;2023-07-22T18:04:00;22.60;91.60
28725;DHT22;43472;48.980;9.646;2023-07-22T18:09:03;22.80;91.60
28725;DHT22;43472;48.980;9.646;2023-07-22T18:14:05;23.00;91.40
28725;DHT22;43472;48.980;9.646;2023-07-22T18:19:07;22.90;90.70
28725;DHT22;43472;48.980;9.646;2023-07-22T18:24:09;22.80;91.10
28725;DHT22;43472;48.980;9.646;2023-07-22T18:29:11;22.80;91.10
28725;DHT22;43472;48.980;9.646;2023-07-22T18:34:14;22.80;90.70
28725;DHT22;43472;48.980;9.646;2023-07-22T18:39:17;22.50;91.60
28725;DHT22;43472;48.980;9.646;2023-07-22T18:44:21;22.40;91.80
28725;DHT22;43472;48.980;9.646;2023-07-22T18:49:23;22.30;92.70
28725;DHT22;43472;48.980;9.646;2023-07-22T18:54:26;22.00;93.30
28725;DHT22;43472;48.980;9.646;2023-07-22T18:59:28;21.70;94.30
28725;DHT22;43472;48.980;9.646;2023-07-22T19:04:30;21.70;94.80
28725;DHT22;43472;48.980;9.646;2023-07-22T19:09:32;21.60;94.50
28725;DHT22;43472;48.980;9.646;2023-07-22T19:14:34;21.40;94.50
28725;DHT22;43472;48.980;9.646;2023-07-22T19:19:35;21.40;95.60
28725;DHT22;43472;48.980;9.646;2023-07-22T19:24:38;21.00;95.70
28725;DHT22;43472;48.980;9.646;2023-07-22T19:29:42;20.70;96.90
28725;DHT22;43472;48.980;9.646;2023-07-22T19:34:44;20.30;97.70
28725;DHT22;43472;48.980;9.646;2023-07-22T19:39:46;20.00;97.90
28725;DHT22;43472;48.980;9.646;2023-07-22T19:44:50;20.00;98.10
28725;DHT22;43472;48.980;9.646;2023-07-22T19:49:52;19.80;98.60
28725;DHT22;43472;48.980;9.646;2023-07-22T19:54:54;19.60;99.00
28725;DHT22;43472;48.980;9.646;2023-07-22T19:59:56;19.40;99.90
28725;DHT22;43472;48.980;9.646;2023-07-22T20:04:59;19.20;99.80
28725;DHT22;43472;48.980;9.646;2023-07-22T20:10:01;18.80;99.90
28725;DHT22;43472;48.980;9.646;2023-07-22T20:15:03;18.80;99.90
28725;DHT22;43472;48.980;9.646;2023-07-22T20:20:06;18.60;99.90
28725;DHT22;43472;48.980;9.646;2023-07-22T20:25:08;18.30;99.90
28725;DHT22;43472;48.980;9.646;2023-07-22T20:30:10;18.30;99.90
28725;DHT22;43472;48.980;9.646;2023-07-22T20:35:13;18.30;99.90
28725;DHT22;43472;48.980;9.646;2023-07-22T20:40:16;18.10;99.90
28725;DHT22;43472;48.980;9.646;2023-07-22T20:45:17;18.00;99.90
28725;DHT22;43472;48.980;9.646;2023-07-22T20:50:19;17.90;99.90
28725;DHT22;43472;48.980;9.646;2023-07-22T20:55:21;17.80;99.90
28725;DHT22;43472;48.980;9.646;2023-07-22T21:00:23;17.60;99.90
28725;DHT22;43472;48.980;9.646;2023-07-22T21:05:26;17.60;99.90
28725;DHT22;43472;48.980;9.646;2023-07-22T21:10:28;17.80;99.90
28725;DHT22;43472;48.980;9.646;2023-07-22T21:15:31;17.80;99.90
28725;DHT22;43472;48.980;9.646;2023-07-22T21:20:33;17.30;99.90
28725;DHT22;43472;48.980;9.646;2023-07-22T21:25:35;17.50;99.90
28725;DHT22;43472;48.980;9.646;2023-07-22T21:30:37;17.40;99.90
28725;DHT22;43472;48.980;9.646;2023-07-22T21:35:39;17.40;99.90
28725;DHT22;43472;48.980;9.646;2023-07-22T21:40:50;17.20;99.90
28725;DHT22;43472;48.980;9.646;2023-07-22T21:45:52;17.50;99.90
28725;DHT22;43472;48.980;9.646;2023-07-22T21:50:54;17.30;99.90
28725;DHT22;43472;48.980;9.646;2023-07-22T21:55:59;17.40;99.90
28725;DHT22;43472;48.980;9.646;2023-07-22T22:01:01;17.20;99.90
28725;DHT22;43472;48.980;9.646;2023-07-22T22:06:05;17.20;99.90
28725;DHT22;43472;48.980;9.646;2023-07-22T22:11:07;16.90;99.90
28725;DHT22;43472;48.980;9.646;2023-07-22T22:16:09;16.90;99.90
28725;DHT22;43472;48.980;9.646;2023-07-22T22:21:11;16.60;99.90
28725;DHT22;43472;48.980;9.646;2023-07-22T22:26:16;16.60;99.90
28725;DHT22;43472;48.980;9.646;2023-07-22T22:31:18;16.50;99.90
28725;DHT22;43472;48.980;9.646;2023-07-22T22:36:20;16.40;99.90
28725;DHT22;43472;48.980;9.646;2023-07-22T22:41:23;16.30;99.90
28725;DHT22;43472;48.980;9.646;2023-07-22T22:46:25;16.40;99.90
28725;DHT22;43472;48.980;9.646;2023-07-22T22:51:27;16.20;99.90
28725;DHT22;43472;48.980;9.646;2023-07-22T22:56:29;16.10;99.90
28725;DHT22;43472;48.980;9.646;2023-07-22T23:01:31;16.00;99.90
28725;DHT22;43472;48.980;9.646;2023-07-22T23:06:33;16.00;99.90
28725;DHT22;43472;48.980;9.646;2023-07-22T23:11:35;16.10;99.90
28725;DHT22;43472;48.980;9.646;2023-07-22T23:16:38;16.10;99.90
28725;DHT22;43472;48.980;9.646;2023-07-22T23:21:40;15.80;99.90
28725;DHT22;43472;48.980;9.646;2023-07-22T23:26:43;15.80;99.90
28725;DHT22;43472;48.980;9.646;2023-07-22T23:31:45;15.60;99.90
28725;DHT22;43472;48.980;9.646;2023-07-22T23:36:47;16.40;99.90
28725;DHT22;43472;48.980;9.646;2023-07-22T23:41:49;15.70;99.90
28725;DHT22;43472;48.980;9.646;2023-07-22T23:46:51;15.80;99.90
28725;DHT22;43472;48.980;9.646;2023-07-22T23:51:53;15.50;99.90
28725;DHT22;43472;48.980;9.646;2023-07-22T23:56:55;15.60;99.90
